sensor_id;sensor_type;location;lat;lon;timestamp;P1;durP1;ratioP1;P2;durP2;ratioP2
34136;SDS011;20414;50.860;4.382;2022-09-29T00:01:55;0.68;;;0.50;;
34136;SDS011;20414;50.860;4.382;2022-09-29T00:04:21;0.70;;;0.47;;
34136;SDS011;20414;50.860;4.382;2022-09-29T00:06:47;0.90;;;0.60;;
34136;SDS011;20414;50.860;4.382;2022-09-29T00:09:12;0.70;;;0.70;;
34136;SDS011;20414;50.860;4.382;2022-09-29T00:11:38;0.70;;;0.63;;
34136;SDS011;20414;50.860;4.382;2022-09-29T00:14:03;0.70;;;0.70;;
34136;SDS011;20414;50.860;4.382;2022-09-29T00:16:29;0.77;;;0.55;;
34136;SDS011;20414;50.860;4.382;2022-09-29T00:18:55;0.82;;;0.70;;
34136;SDS011;20414;50.860;4.382;2022-09-29T00:21:21;1.00;;;0.65;;
34136;SDS011;20414;50.860;4.382;2022-09-29T00:23:47;0.77;;;0.50;;
34136;SDS011;20414;50.860;4.382;2022-09-29T00:26:18;0.68;;;0.60;;
34136;SDS011;20414;50.860;4.382;2022-09-29T00:28:47;1.50;;;0.82;;
34136;SDS011;20414;50.860;4.382;2022-09-29T00:31:18;1.15;;;0.57;;
34136;SDS011;20414;50.860;4.382;2022-09-29T00:33:44;0.70;;;0.60;;
34136;SDS011;20414;50.860;4.382;2022-09-29T00:36:14;0.82;;;0.70;;
34136;SDS011;20414;50.860;4.382;2022-09-29T00:38:42;0.82;;;0.60;;
34136;SDS011;20414;50.860;4.382;2022-09-29T00:41:19;1.05;;;0.60;;
34136;SDS011;20414;50.860;4.382;2022-09-29T00:49:25;0.80;;;0.63;;
34136;SDS011;20414;50.860;4.382;2022-09-29T00:51:55;1.08;;;0.73;;
34136;SDS011;20414;50.860;4.382;2022-09-29T00:54:31;0.80;;;0.70;;
34136;SDS011;20414;50.860;4.382;2022-09-29T00:57:02;0.90;;;0.60;;
34136;SDS011;20414;50.860;4.382;2022-09-29T00:59:31;1.23;;;0.70;;
34136;SDS011;20414;50.860;4.382;2022-09-29T01:02:11;0.68;;;0.55;;
34136;SDS011;20414;50.860;4.382;2022-09-29T01:04:40;0.68;;;0.50;;
34136;SDS011;20414;50.860;4.382;2022-09-29T01:07:07;1.33;;;0.60;;
34136;SDS011;20414;50.860;4.382;2022-09-29T01:09:35;0.50;;;0.50;;
34136;SDS011;20414;50.860;4.382;2022-09-29T01:12:03;1.15;;;0.70;;
34136;SDS011;20414;50.860;4.382;2022-09-29T01:14:29;0.50;;;0.43;;
34136;SDS011;20414;50.860;4.382;2022-09-29T01:16:57;0.73;;;0.70;;
34136;SDS011;20414;50.860;4.382;2022-09-29T01:24:42;2.20;;;0.70;;
34136;SDS011;20414;50.860;4.382;2022-09-29T01:43:42;3.35;;;0.60;;
34136;SDS011;20414;50.860;4.382;2022-09-29T01:46:22;1.20;;;0.60;;
34136;SDS011;20414;50.860;4.382;2022-09-29T01:48:52;2.25;;;0.80;;
34136;SDS011;20414;50.860;4.382;2022-09-29T01:51:24;3.73;;;1.13;;
34136;SDS011;20414;50.860;4.382;2022-09-29T01:53:55;3.03;;;0.70;;
34136;SDS011;20414;50.860;4.382;2022-09-29T01:58:53;1.67;;;0.77;;
34136;SDS011;20414;50.860;4.382;2022-09-29T02:01:23;1.30;;;0.70;;
34136;SDS011;20414;50.860;4.382;2022-09-29T02:04:06;1.73;;;0.90;;
34136;SDS011;20414;50.860;4.382;2022-09-29T02:06:40;3.10;;;0.80;;
34136;SDS011;20414;50.860;4.382;2022-09-29T02:09:12;1.55;;;0.77;;
34136;SDS011;20414;50.860;4.382;2022-09-29T02:11:43;1.40;;;0.80;;
34136;SDS011;20414;50.860;4.382;2022-09-29T02:14:11;2.65;;;0.80;;
34136;SDS011;20414;50.860;4.382;2022-09-29T02:16:47;1.75;;;0.70;;
34136;SDS011;20414;50.860;4.382;2022-09-29T02:19:24;2.25;;;0.70;;
34136;SDS011;20414;50.860;4.382;2022-09-29T02:21:52;2.28;;;0.88;;
34136;SDS011;20414;50.860;4.382;2022-09-29T02:24:19;1.08;;;0.70;;
34136;SDS011;20414;50.860;4.382;2022-09-29T02:26:46;0.82;;;0.50;;
34136;SDS011;20414;50.860;4.382;2022-09-29T02:29:13;1.17;;;0.52;;
34136;SDS011;20414;50.860;4.382;2022-09-29T02:31:40;2.15;;;0.60;;
34136;SDS011;20414;50.860;4.382;2022-09-29T02:34:10;0.60;;;0.50;;
34136;SDS011;20414;50.860;4.382;2022-09-29T02:36:46;0.90;;;0.70;;
34136;SDS011;20414;50.860;4.382;2022-09-29T02:44:57;2.35;;;0.70;;
34136;SDS011;20414;50.860;4.382;2022-09-29T02:55:50;1.05;;;0.60;;
34136;SDS011;20414;50.860;4.382;2022-09-29T03:01:11;0.95;;;0.60;;
34136;SDS011;20414;50.860;4.382;2022-09-29T03:03:39;1.10;;;0.60;;
34136;SDS011;20414;50.860;4.382;2022-09-29T03:06:05;1.55;;;0.60;;
34136;SDS011;20414;50.860;4.382;2022-09-29T03:08:31;0.90;;;0.63;;
34136;SDS011;20414;50.860;4.382;2022-09-29T03:10:57;1.70;;;0.47;;
34136;SDS011;20414;50.860;4.382;2022-09-29T03:13:23;2.45;;;0.60;;
34136;SDS011;20414;50.860;4.382;2022-09-29T03:15:49;1.17;;;0.55;;
34136;SDS011;20414;50.860;4.382;2022-09-29T03:18:15;1.13;;;0.60;;
34136;SDS011;20414;50.860;4.382;2022-09-29T03:20:40;2.45;;;0.70;;
34136;SDS011;20414;50.860;4.382;2022-09-29T03:23:06;1.35;;;0.60;;
34136;SDS011;20414;50.860;4.382;2022-09-29T03:25:32;1.73;;;0.55;;
34136;SDS011;20414;50.860;4.382;2022-09-29T03:27:57;4.90;;;0.50;;
34136;SDS011;20414;50.860;4.382;2022-09-29T03:30:23;0.93;;;0.70;;
34136;SDS011;20414;50.860;4.382;2022-09-29T03:32:49;1.05;;;0.70;;
34136;SDS011;20414;50.860;4.382;2022-09-29T03:35:15;0.77;;;0.50;;
34136;SDS011;20414;50.860;4.382;2022-09-29T03:37:40;1.40;;;0.60;;
34136;SDS011;20414;50.860;4.382;2022-09-29T03:40:06;0.70;;;0.40;;
34136;SDS011;20414;50.860;4.382;2022-09-29T03:42:32;0.68;;;0.60;;
34136;SDS011;20414;50.860;4.382;2022-09-29T03:44:58;0.90;;;0.50;;
34136;SDS011;20414;50.860;4.382;2022-09-29T03:47:24;0.98;;;0.50;;
34136;SDS011;20414;50.860;4.382;2022-09-29T03:49:50;0.73;;;0.50;;
34136;SDS011;20414;50.860;4.382;2022-09-29T03:52:16;1.65;;;0.52;;
34136;SDS011;20414;50.860;4.382;2022-09-29T03:54:41;0.90;;;0.70;;
34136;SDS011;20414;50.860;4.382;2022-09-29T03:57:07;0.77;;;0.47;;
34136;SDS011;20414;50.860;4.382;2022-09-29T03:59:33;2.30;;;0.70;;
34136;SDS011;20414;50.860;4.382;2022-09-29T04:01:59;3.05;;;0.75;;
34136;SDS011;20414;50.860;4.382;2022-09-29T04:04:24;1.45;;;0.60;;
34136;SDS011;20414;50.860;4.382;2022-09-29T04:06:50;0.57;;;0.50;;
34136;SDS011;20414;50.860;4.382;2022-09-29T04:09:15;1.00;;;0.50;;
34136;SDS011;20414;50.860;4.382;2022-09-29T04:11:41;0.55;;;0.30;;
34136;SDS011;20414;50.860;4.382;2022-09-29T04:14:07;2.15;;;0.45;;
34136;SDS011;20414;50.860;4.382;2022-09-29T04:16:32;1.90;;;0.73;;
34136;SDS011;20414;50.860;4.382;2022-09-29T04:18:58;1.02;;;0.60;;
34136;SDS011;20414;50.860;4.382;2022-09-29T04:21:23;0.82;;;0.52;;
34136;SDS011;20414;50.860;4.382;2022-09-29T04:23:49;2.03;;;0.50;;
34136;SDS011;20414;50.860;4.382;2022-09-29T04:26:15;1.85;;;0.55;;
34136;SDS011;20414;50.860;4.382;2022-09-29T04:28:41;0.70;;;0.50;;
34136;SDS011;20414;50.860;4.382;2022-09-29T04:31:07;0.70;;;0.50;;
34136;SDS011;20414;50.860;4.382;2022-09-29T04:33:33;1.60;;;0.60;;
34136;SDS011;20414;50.860;4.382;2022-09-29T04:35:59;3.50;;;0.50;;
34136;SDS011;20414;50.860;4.382;2022-09-29T04:38:24;0.57;;;0.45;;
34136;SDS011;20414;50.860;4.382;2022-09-29T04:40:50;1.23;;;0.55;;
34136;SDS011;20414;50.860;4.382;2022-09-29T04:43:16;1.05;;;0.55;;
34136;SDS011;20414;50.860;4.382;2022-09-29T04:45:42;1.80;;;0.45;;
34136;SDS011;20414;50.860;4.382;2022-09-29T04:48:08;0.32;;;0.28;;
34136;SDS011;20414;50.860;4.382;2022-09-29T04:50:34;0.47;;;0.40;;
34136;SDS011;20414;50.860;4.382;2022-09-29T04:52:59;0.63;;;0.40;;
34136;SDS011;20414;50.860;4.382;2022-09-29T04:55:25;2.05;;;0.60;;
34136;SDS011;20414;50.860;4.382;2022-09-29T04:57:51;0.63;;;0.40;;
34136;SDS011;20414;50.860;4.382;2022-09-29T05:00:17;1.27;;;0.60;;
34136;SDS011;20414;50.860;4.382;2022-09-29T05:02:42;1.88;;;0.60;;
34136;SDS011;20414;50.860;4.382;2022-09-29T05:05:09;1.10;;;0.52;;
34136;SDS011;20414;50.860;4.382;2022-09-29T05:07:36;0.40;;;0.40;;
34136;SDS011;20414;50.860;4.382;2022-09-29T05:10:04;0.95;;;0.52;;
34136;SDS011;20414;50.860;4.382;2022-09-29T05:12:30;0.38;;;0.32;;
34136;SDS011;20414;50.860;4.382;2022-09-29T05:14:56;0.60;;;0.50;;
34136;SDS011;20414;50.860;4.382;2022-09-29T05:17:22;2.03;;;0.50;;
34136;SDS011;20414;50.860;4.382;2022-09-29T05:19:47;0.75;;;0.52;;
34136;SDS011;20414;50.860;4.382;2022-09-29T05:22:13;0.88;;;0.50;;
34136;SDS011;20414;50.860;4.382;2022-09-29T05:24:39;1.00;;;0.50;;
34136;SDS011;20414;50.860;4.382;2022-09-29T05:27:04;0.63;;;0.45;;
34136;SDS011;20414;50.860;4.382;2022-09-29T05:29:30;0.52;;;0.40;;
34136;SDS011;20414;50.860;4.382;2022-09-29T05:31:56;0.80;;;0.40;;
34136;SDS011;20414;50.860;4.382;2022-09-29T05:34:21;0.73;;;0.50;;
34136;SDS011;20414;50.860;4.382;2022-09-29T05:36:47;1.38;;;0.60;;
34136;SDS011;20414;50.860;4.382;2022-09-29T05:39:13;1.60;;;0.65;;
34136;SDS011;20414;50.860;4.382;2022-09-29T05:41:39;1.20;;;0.50;;
34136;SDS011;20414;50.860;4.382;2022-09-29T05:44:05;2.67;;;0.73;;
34136;SDS011;20414;50.860;4.382;2022-09-29T05:46:30;1.90;;;0.40;;
34136;SDS011;20414;50.860;4.382;2022-09-29T05:48:56;2.83;;;0.50;;
34136;SDS011;20414;50.860;4.382;2022-09-29T05:51:24;1.25;;;0.60;;
34136;SDS011;20414;50.860;4.382;2022-09-29T05:53:51;2.05;;;0.50;;
34136;SDS011;20414;50.860;4.382;2022-09-29T05:56:18;1.25;;;0.50;;
34136;SDS011;20414;50.860;4.382;2022-09-29T05:58:49;0.93;;;0.40;;
34136;SDS011;20414;50.860;4.382;2022-09-29T06:01:16;1.90;;;0.50;;
34136;SDS011;20414;50.860;4.382;2022-09-29T06:03:44;0.55;;;0.50;;
34136;SDS011;20414;50.860;4.382;2022-09-29T06:06:17;3.03;;;0.50;;
34136;SDS011;20414;50.860;4.382;2022-09-29T06:08:44;1.50;;;0.60;;
34136;SDS011;20414;50.860;4.382;2022-09-29T06:11:18;7.22;;;0.88;;
34136;SDS011;20414;50.860;4.382;2022-09-29T06:13:55;3.22;;;0.65;;
34136;SDS011;20414;50.860;4.382;2022-09-29T06:16:23;4.68;;;0.45;;
34136;SDS011;20414;50.860;4.382;2022-09-29T06:18:51;3.38;;;0.65;;
34136;SDS011;20414;50.860;4.382;2022-09-29T06:21:19;3.42;;;0.63;;
34136;SDS011;20414;50.860;4.382;2022-09-29T06:23:51;1.38;;;0.50;;
34136;SDS011;20414;50.860;4.382;2022-09-29T06:26:18;1.70;;;0.40;;
34136;SDS011;20414;50.860;4.382;2022-09-29T06:28:45;0.98;;;0.75;;
34136;SDS011;20414;50.860;4.382;2022-09-29T06:31:19;2.50;;;0.50;;
34136;SDS011;20414;50.860;4.382;2022-09-29T06:33:46;1.38;;;0.50;;
34136;SDS011;20414;50.860;4.382;2022-09-29T06:39:03;1.20;;;0.60;;
34136;SDS011;20414;50.860;4.382;2022-09-29T06:41:30;0.68;;;0.50;;
34136;SDS011;20414;50.860;4.382;2022-09-29T06:43:55;0.80;;;0.55;;
34136;SDS011;20414;50.860;4.382;2022-09-29T06:46:21;3.90;;;0.70;;
34136;SDS011;20414;50.860;4.382;2022-09-29T06:48:47;1.30;;;0.50;;
34136;SDS011;20414;50.860;4.382;2022-09-29T06:51:13;1.40;;;0.70;;
34136;SDS011;20414;50.860;4.382;2022-09-29T06:53:39;1.10;;;0.60;;
34136;SDS011;20414;50.860;4.382;2022-09-29T06:56:05;1.25;;;0.50;;
34136;SDS011;20414;50.860;4.382;2022-09-29T06:58:33;1.25;;;0.55;;
34136;SDS011;20414;50.860;4.382;2022-09-29T07:00:59;2.25;;;0.52;;
34136;SDS011;20414;50.860;4.382;2022-09-29T07:03:26;0.40;;;0.40;;
34136;SDS011;20414;50.860;4.382;2022-09-29T07:05:52;2.45;;;0.70;;
34136;SDS011;20414;50.860;4.382;2022-09-29T07:08:17;1.65;;;0.70;;
34136;SDS011;20414;50.860;4.382;2022-09-29T07:10:44;1.27;;;0.75;;
34136;SDS011;20414;50.860;4.382;2022-09-29T07:13:10;1.63;;;0.60;;
34136;SDS011;20414;50.860;4.382;2022-09-29T07:15:36;0.95;;;0.57;;
34136;SDS011;20414;50.860;4.382;2022-09-29T07:18:02;3.05;;;0.90;;
34136;SDS011;20414;50.860;4.382;2022-09-29T07:20:28;2.88;;;0.60;;
34136;SDS011;20414;50.860;4.382;2022-09-29T07:22:55;1.25;;;0.50;;
34136;SDS011;20414;50.860;4.382;2022-09-29T07:25:22;0.95;;;0.60;;
34136;SDS011;20414;50.860;4.382;2022-09-29T07:27:48;2.25;;;0.57;;
34136;SDS011;20414;50.860;4.382;2022-09-29T07:30:15;1.10;;;0.57;;
34136;SDS011;20414;50.860;4.382;2022-09-29T07:32:41;1.20;;;0.55;;
34136;SDS011;20414;50.860;4.382;2022-09-29T07:35:07;1.13;;;0.43;;
34136;SDS011;20414;50.860;4.382;2022-09-29T07:37:33;0.85;;;0.50;;
34136;SDS011;20414;50.860;4.382;2022-09-29T07:39:58;1.48;;;0.50;;
34136;SDS011;20414;50.860;4.382;2022-09-29T07:42:26;0.63;;;0.40;;
34136;SDS011;20414;50.860;4.382;2022-09-29T07:44:53;0.60;;;0.50;;
34136;SDS011;20414;50.860;4.382;2022-09-29T07:47:19;1.65;;;0.50;;
34136;SDS011;20414;50.860;4.382;2022-09-29T07:49:45;0.90;;;0.60;;
34136;SDS011;20414;50.860;4.382;2022-09-29T07:52:11;0.80;;;0.50;;
34136;SDS011;20414;50.860;4.382;2022-09-29T07:54:37;1.38;;;0.55;;
34136;SDS011;20414;50.860;4.382;2022-09-29T07:57:03;1.60;;;0.60;;
34136;SDS011;20414;50.860;4.382;2022-09-29T07:59:29;1.35;;;0.60;;
34136;SDS011;20414;50.860;4.382;2022-09-29T08:01:55;0.98;;;0.50;;
34136;SDS011;20414;50.860;4.382;2022-09-29T08:04:21;1.17;;;0.60;;
34136;SDS011;20414;50.860;4.382;2022-09-29T08:06:47;1.20;;;0.57;;
34136;SDS011;20414;50.860;4.382;2022-09-29T08:09:13;0.63;;;0.50;;
34136;SDS011;20414;50.860;4.382;2022-09-29T08:11:40;1.15;;;0.60;;
34136;SDS011;20414;50.860;4.382;2022-09-29T08:14:07;0.70;;;0.50;;
34136;SDS011;20414;50.860;4.382;2022-09-29T08:16:35;1.85;;;0.50;;
34136;SDS011;20414;50.860;4.382;2022-09-29T08:19:01;1.80;;;0.50;;
34136;SDS011;20414;50.860;4.382;2022-09-29T08:21:29;1.40;;;0.50;;
34136;SDS011;20414;50.860;4.382;2022-09-29T08:23:55;1.55;;;0.65;;
34136;SDS011;20414;50.860;4.382;2022-09-29T08:26:21;1.77;;;0.60;;
34136;SDS011;20414;50.860;4.382;2022-09-29T08:28:47;0.77;;;0.50;;
34136;SDS011;20414;50.860;4.382;2022-09-29T08:31:17;0.93;;;0.50;;
34136;SDS011;20414;50.860;4.382;2022-09-29T08:33:48;0.82;;;0.40;;
34136;SDS011;20414;50.860;4.382;2022-09-29T08:36:15;1.65;;;0.85;;
34136;SDS011;20414;50.860;4.382;2022-09-29T08:38:48;1.55;;;0.50;;
34136;SDS011;20414;50.860;4.382;2022-09-29T08:43:44;1.77;;;0.70;;
34136;SDS011;20414;50.860;4.382;2022-09-29T08:48:59;1.65;;;0.63;;
34136;SDS011;20414;50.860;4.382;2022-09-29T08:51:33;1.48;;;0.55;;
34136;SDS011;20414;50.860;4.382;2022-09-29T08:56:45;1.27;;;0.52;;
34136;SDS011;20414;50.860;4.382;2022-09-29T08:59:11;0.80;;;0.60;;
34136;SDS011;20414;50.860;4.382;2022-09-29T09:17:00;1.27;;;0.60;;
34136;SDS011;20414;50.860;4.382;2022-09-29T09:22:23;1.65;;;0.80;;
34136;SDS011;20414;50.860;4.382;2022-09-29T09:25:18;0.90;;;0.57;;
34136;SDS011;20414;50.860;4.382;2022-09-29T09:27:55;2.80;;;0.70;;
34136;SDS011;20414;50.860;4.382;2022-09-29T09:30:23;1.00;;;0.75;;
34136;SDS011;20414;50.860;4.382;2022-09-29T09:32:56;1.23;;;0.60;;
34136;SDS011;20414;50.860;4.382;2022-09-29T09:35:27;1.60;;;0.60;;
34136;SDS011;20414;50.860;4.382;2022-09-29T09:37:59;0.90;;;0.50;;
34136;SDS011;20414;50.860;4.382;2022-09-29T09:40:35;1.38;;;0.50;;
34136;SDS011;20414;50.860;4.382;2022-09-29T09:48:34;0.80;;;0.60;;
34136;SDS011;20414;50.860;4.382;2022-09-29T09:53:55;0.98;;;0.57;;
34136;SDS011;20414;50.860;4.382;2022-09-29T09:59:13;1.02;;;0.60;;
34136;SDS011;20414;50.860;4.382;2022-09-29T10:01:51;0.80;;;0.60;;
34136;SDS011;20414;50.860;4.382;2022-09-29T10:04:17;2.25;;;0.52;;
34136;SDS011;20414;50.860;4.382;2022-09-29T10:06:42;1.00;;;0.70;;
34136;SDS011;20414;50.860;4.382;2022-09-29T10:09:10;1.38;;;0.50;;
34136;SDS011;20414;50.860;4.382;2022-09-29T10:11:39;1.75;;;0.60;;
34136;SDS011;20414;50.860;4.382;2022-09-29T10:14:13;0.73;;;0.52;;
34136;SDS011;20414;50.860;4.382;2022-09-29T10:16:45;0.93;;;0.40;;
34136;SDS011;20414;50.860;4.382;2022-09-29T10:19:22;0.80;;;0.60;;
34136;SDS011;20414;50.860;4.382;2022-09-29T10:22:12;1.73;;;0.55;;
34136;SDS011;20414;50.860;4.382;2022-09-29T10:24:39;1.00;;;0.60;;
34136;SDS011;20414;50.860;4.382;2022-09-29T10:27:04;1.15;;;0.63;;
34136;SDS011;20414;50.860;4.382;2022-09-29T10:29:41;0.52;;;0.43;;
34136;SDS011;20414;50.860;4.382;2022-09-29T10:32:13;1.20;;;0.40;;
34136;SDS011;20414;50.860;4.382;2022-09-29T10:34:41;1.15;;;0.60;;
34136;SDS011;20414;50.860;4.382;2022-09-29T10:42:35;1.33;;;0.60;;
34136;SDS011;20414;50.860;4.382;2022-09-29T10:47:40;1.23;;;0.70;;
34136;SDS011;20414;50.860;4.382;2022-09-29T10:50:19;1.10;;;0.50;;
34136;SDS011;20414;50.860;4.382;2022-09-29T10:52:48;0.70;;;0.50;;
34136;SDS011;20414;50.860;4.382;2022-09-29T10:55:26;0.77;;;0.60;;
34136;SDS011;20414;50.860;4.382;2022-09-29T10:57:58;0.90;;;0.57;;
34136;SDS011;20414;50.860;4.382;2022-09-29T11:00:27;1.10;;;0.60;;
34136;SDS011;20414;50.860;4.382;2022-09-29T11:05:28;1.25;;;0.55;;
34136;SDS011;20414;50.860;4.382;2022-09-29T11:07:53;1.60;;;0.60;;
34136;SDS011;20414;50.860;4.382;2022-09-29T11:12:54;1.38;;;0.60;;
34136;SDS011;20414;50.860;4.382;2022-09-29T11:15:24;2.35;;;0.73;;
34136;SDS011;20414;50.860;4.382;2022-09-29T11:18:04;1.70;;;0.60;;
34136;SDS011;20414;50.860;4.382;2022-09-29T11:20:51;0.85;;;0.60;;
34136;SDS011;20414;50.860;4.382;2022-09-29T11:23:50;2.05;;;0.73;;
34136;SDS011;20414;50.860;4.382;2022-09-29T11:26:41;0.70;;;0.50;;
34136;SDS011;20414;50.860;4.382;2022-09-29T11:29:17;1.42;;;0.60;;
34136;SDS011;20414;50.860;4.382;2022-09-29T11:32:22;2.45;;;0.80;;
34136;SDS011;20414;50.860;4.382;2022-09-29T11:37:52;0.70;;;0.50;;
34136;SDS011;20414;50.860;4.382;2022-09-29T11:54:20;1.20;;;0.50;;
34136;SDS011;20414;50.860;4.382;2022-09-29T11:57:11;0.65;;;0.50;;
34136;SDS011;20414;50.860;4.382;2022-09-29T12:02:20;0.90;;;0.60;;
34136;SDS011;20414;50.860;4.382;2022-09-29T12:15:43;0.45;;;0.40;;
34136;SDS011;20414;50.860;4.382;2022-09-29T12:18:47;1.15;;;0.63;;
34136;SDS011;20414;50.860;4.382;2022-09-29T12:21:33;0.90;;;0.60;;
34136;SDS011;20414;50.860;4.382;2022-09-29T12:24:05;1.10;;;0.50;;
34136;SDS011;20414;50.860;4.382;2022-09-29T12:26:52;0.63;;;0.63;;
34136;SDS011;20414;50.860;4.382;2022-09-29T12:29:28;0.55;;;0.47;;
34136;SDS011;20414;50.860;4.382;2022-09-29T12:31:59;0.70;;;0.50;;
34136;SDS011;20414;50.860;4.382;2022-09-29T12:34:37;1.55;;;0.40;;
34136;SDS011;20414;50.860;4.382;2022-09-29T12:37:31;0.65;;;0.50;;
34136;SDS011;20414;50.860;4.382;2022-09-29T12:51:37;0.68;;;0.50;;
34136;SDS011;20414;50.860;4.382;2022-09-29T12:54:08;0.98;;;0.50;;
34136;SDS011;20414;50.860;4.382;2022-09-29T12:59:39;0.70;;;0.50;;
34136;SDS011;20414;50.860;4.382;2022-09-29T13:13:43;1.42;;;0.40;;
34136;SDS011;20414;50.860;4.382;2022-09-29T13:16:41;0.75;;;0.50;;
34136;SDS011;20414;50.860;4.382;2022-09-29T13:19:17;0.60;;;0.40;;
34136;SDS011;20414;50.860;4.382;2022-09-29T13:25:10;0.60;;;0.50;;
34136;SDS011;20414;50.860;4.382;2022-09-29T13:27:40;0.82;;;0.47;;
34136;SDS011;20414;50.860;4.382;2022-09-29T13:32:49;2.20;;;0.47;;
34136;SDS011;20414;50.860;4.382;2022-09-29T13:35:38;0.90;;;0.40;;
34136;SDS011;20414;50.860;4.382;2022-09-29T13:38:07;0.80;;;0.47;;
34136;SDS011;20414;50.860;4.382;2022-09-29T13:44:23;0.70;;;0.47;;
34136;SDS011;20414;50.860;4.382;2022-09-29T13:46:26;0.77;;;0.43;;
34136;SDS011;20414;50.860;4.382;2022-09-29T13:49:01;0.50;;;0.40;;
34136;SDS011;20414;50.860;4.382;2022-09-29T13:57:03;0.65;;;0.40;;
34136;SDS011;20414;50.860;4.382;2022-09-29T13:59:31;0.50;;;0.40;;
34136;SDS011;20414;50.860;4.382;2022-09-29T14:01:58;0.70;;;0.50;;
34136;SDS011;20414;50.860;4.382;2022-09-29T14:04:32;0.50;;;0.40;;
34136;SDS011;20414;50.860;4.382;2022-09-29T14:07:03;0.55;;;0.40;;
34136;SDS011;20414;50.860;4.382;2022-09-29T14:09:31;0.30;;;0.30;;
34136;SDS011;20414;50.860;4.382;2022-09-29T14:14:29;0.50;;;0.32;;
34136;SDS011;20414;50.860;4.382;2022-09-29T14:17:16;0.40;;;0.30;;
34136;SDS011;20414;50.860;4.382;2022-09-29T14:27:44;1.38;;;0.35;;
34136;SDS011;20414;50.860;4.382;2022-09-29T14:35:43;0.40;;;0.40;;
34136;SDS011;20414;50.860;4.382;2022-09-29T14:52:30;0.55;;;0.50;;
34136;SDS011;20414;50.860;4.382;2022-09-29T15:02:59;0.60;;;0.30;;
34136;SDS011;20414;50.860;4.382;2022-09-29T15:05:26;0.47;;;0.30;;
34136;SDS011;20414;50.860;4.382;2022-09-29T15:07:53;0.30;;;0.20;;
34136;SDS011;20414;50.860;4.382;2022-09-29T15:10:22;0.40;;;0.40;;
34136;SDS011;20414;50.860;4.382;2022-09-29T15:12:50;0.70;;;0.40;;
34136;SDS011;20414;50.860;4.382;2022-09-29T15:15:32;0.95;;;0.30;;
34136;SDS011;20414;50.860;4.382;2022-09-29T15:18:12;0.80;;;0.40;;
34136;SDS011;20414;50.860;4.382;2022-09-29T15:20:54;0.28;;;0.22;;
34136;SDS011;20414;50.860;4.382;2022-09-29T15:26:14;0.50;;;0.30;;
34136;SDS011;20414;50.860;4.382;2022-09-29T15:28:42;0.57;;;0.35;;
34136;SDS011;20414;50.860;4.382;2022-09-29T15:31:10;0.35;;;0.30;;
34136;SDS011;20414;50.860;4.382;2022-09-29T15:33:41;0.38;;;0.30;;
34136;SDS011;20414;50.860;4.382;2022-09-29T15:36:23;0.45;;;0.35;;
34136;SDS011;20414;50.860;4.382;2022-09-29T15:38:51;0.20;;;0.20;;
34136;SDS011;20414;50.860;4.382;2022-09-29T15:41:19;0.70;;;0.40;;
34136;SDS011;20414;50.860;4.382;2022-09-29T15:46:24;0.30;;;0.30;;
34136;SDS011;20414;50.860;4.382;2022-09-29T15:52:19;0.43;;;0.30;;
34136;SDS011;20414;50.860;4.382;2022-09-29T15:54:39;0.65;;;0.30;;
34136;SDS011;20414;50.860;4.382;2022-09-29T16:02:47;0.40;;;0.40;;
34136;SDS011;20414;50.860;4.382;2022-09-29T16:05:26;0.30;;;0.30;;
34136;SDS011;20414;50.860;4.382;2022-09-29T16:08:05;0.40;;;0.35;;
34136;SDS011;20414;50.860;4.382;2022-09-29T16:10:48;0.45;;;0.30;;
34136;SDS011;20414;50.860;4.382;2022-09-29T16:13:20;0.30;;;0.30;;
34136;SDS011;20414;50.860;4.382;2022-09-29T16:16:10;0.40;;;0.30;;
34136;SDS011;20414;50.860;4.382;2022-09-29T16:21:09;0.65;;;0.40;;
34136;SDS011;20414;50.860;4.382;2022-09-29T16:26:40;0.40;;;0.30;;
34136;SDS011;20414;50.860;4.382;2022-09-29T16:31:34;0.65;;;0.30;;
34136;SDS011;20414;50.860;4.382;2022-09-29T16:34:04;0.25;;;0.22;;
34136;SDS011;20414;50.860;4.382;2022-09-29T16:36:46;0.30;;;0.20;;
34136;SDS011;20414;50.860;4.382;2022-09-29T16:39:39;0.20;;;0.20;;
34136;SDS011;20414;50.860;4.382;2022-09-29T16:42:23;0.30;;;0.30;;
34136;SDS011;20414;50.860;4.382;2022-09-29T16:44:51;0.50;;;0.30;;
34136;SDS011;20414;50.860;4.382;2022-09-29T16:47:28;0.28;;;0.25;;
34136;SDS011;20414;50.860;4.382;2022-09-29T16:50:00;0.30;;;0.30;;
34136;SDS011;20414;50.860;4.382;2022-09-29T16:52:49;0.40;;;0.20;;
34136;SDS011;20414;50.860;4.382;2022-09-29T16:55:16;0.50;;;0.30;;
34136;SDS011;20414;50.860;4.382;2022-09-29T16:58:04;0.43;;;0.28;;
34136;SDS011;20414;50.860;4.382;2022-09-29T17:00:34;0.55;;;0.32;;
34136;SDS011;20414;50.860;4.382;2022-09-29T17:03:00;0.30;;;0.30;;
34136;SDS011;20414;50.860;4.382;2022-09-29T17:05:29;0.50;;;0.40;;
34136;SDS011;20414;50.860;4.382;2022-09-29T17:08:00;0.30;;;0.25;;
34136;SDS011;20414;50.860;4.382;2022-09-29T17:10:27;0.30;;;0.22;;
34136;SDS011;20414;50.860;4.382;2022-09-29T17:12:54;0.30;;;0.30;;
34136;SDS011;20414;50.860;4.382;2022-09-29T17:15:19;0.30;;;0.20;;
34136;SDS011;20414;50.860;4.382;2022-09-29T17:17:47;0.45;;;0.30;;
34136;SDS011;20414;50.860;4.382;2022-09-29T17:20:15;0.70;;;0.40;;
34136;SDS011;20414;50.860;4.382;2022-09-29T17:22:53;0.20;;;0.20;;
34136;SDS011;20414;50.860;4.382;2022-09-29T17:25:19;0.30;;;0.20;;
34136;SDS011;20414;50.860;4.382;2022-09-29T17:27:45;0.90;;;0.30;;
34136;SDS011;20414;50.860;4.382;2022-09-29T17:30:29;0.35;;;0.35;;
34136;SDS011;20414;50.860;4.382;2022-09-29T17:32:56;0.30;;;0.30;;
34136;SDS011;20414;50.860;4.382;2022-09-29T17:35:26;0.20;;;0.20;;
34136;SDS011;20414;50.860;4.382;2022-09-29T17:37:54;0.50;;;0.40;;
34136;SDS011;20414;50.860;4.382;2022-09-29T17:40:30;0.50;;;0.30;;
34136;SDS011;20414;50.860;4.382;2022-09-29T17:42:58;0.40;;;0.20;;
34136;SDS011;20414;50.860;4.382;2022-09-29T17:45:25;0.32;;;0.30;;
34136;SDS011;20414;50.860;4.382;2022-09-29T17:47:52;0.60;;;0.28;;
34136;SDS011;20414;50.860;4.382;2022-09-29T17:52:52;0.35;;;0.20;;
34136;SDS011;20414;50.860;4.382;2022-09-29T17:55:19;0.30;;;0.20;;
34136;SDS011;20414;50.860;4.382;2022-09-29T17:57:47;0.50;;;0.30;;
34136;SDS011;20414;50.860;4.382;2022-09-29T18:02:41;0.57;;;0.40;;
34136;SDS011;20414;50.860;4.382;2022-09-29T18:05:06;0.57;;;0.30;;
34136;SDS011;20414;50.860;4.382;2022-09-29T18:07:34;0.45;;;0.32;;
34136;SDS011;20414;50.860;4.382;2022-09-29T18:10:00;0.50;;;0.30;;
34136;SDS011;20414;50.860;4.382;2022-09-29T18:12:26;0.20;;;0.20;;
34136;SDS011;20414;50.860;4.382;2022-09-29T18:14:51;0.50;;;0.40;;
34136;SDS011;20414;50.860;4.382;2022-09-29T18:17:17;0.40;;;0.32;;
34136;SDS011;20414;50.860;4.382;2022-09-29T18:19:42;0.65;;;0.30;;
34136;SDS011;20414;50.860;4.382;2022-09-29T18:22:08;0.50;;;0.30;;
34136;SDS011;20414;50.860;4.382;2022-09-29T18:24:34;0.88;;;0.30;;
34136;SDS011;20414;50.860;4.382;2022-09-29T18:27:00;0.60;;;0.40;;
34136;SDS011;20414;50.860;4.382;2022-09-29T18:29:26;0.70;;;0.40;;
34136;SDS011;20414;50.860;4.382;2022-09-29T18:31:55;1.85;;;0.60;;
34136;SDS011;20414;50.860;4.382;2022-09-29T18:34:20;0.93;;;0.45;;
34136;SDS011;20414;50.860;4.382;2022-09-29T18:36:47;1.85;;;0.50;;
34136;SDS011;20414;50.860;4.382;2022-09-29T18:39:15;0.80;;;0.43;;
34136;SDS011;20414;50.860;4.382;2022-09-29T18:41:44;1.00;;;0.45;;
34136;SDS011;20414;50.860;4.382;2022-09-29T18:44:14;0.60;;;0.40;;
34136;SDS011;20414;50.860;4.382;2022-09-29T18:46:41;0.47;;;0.40;;
34136;SDS011;20414;50.860;4.382;2022-09-29T18:49:14;0.57;;;0.38;;
34136;SDS011;20414;50.860;4.382;2022-09-29T18:51:42;1.02;;;0.40;;
34136;SDS011;20414;50.860;4.382;2022-09-29T18:54:08;0.90;;;0.38;;
34136;SDS011;20414;50.860;4.382;2022-09-29T18:56:41;0.85;;;0.40;;
34136;SDS011;20414;50.860;4.382;2022-09-29T18:59:09;0.50;;;0.40;;
34136;SDS011;20414;50.860;4.382;2022-09-29T19:01:36;0.25;;;0.22;;